sensor_id;sensor_type;location;lat;lon;timestamp;P1;durP1;ratioP1;P2;durP2;ratioP2
6755;SDS011;3415;51.148;7.014;2023-04-24T00:02:00;2.17;;;1.03;;
6755;SDS011;3415;51.148;7.014;2023-04-24T00:04:28;1.37;;;0.80;;
6755;SDS011;3415;51.148;7.014;2023-04-24T00:06:56;2.27;;;1.20;;
6755;SDS011;3415;51.148;7.014;2023-04-24T00:09:25;2.20;;;1.13;;
6755;SDS011;3415;51.148;7.014;2023-04-24T00:11:52;2.10;;;1.20;;
6755;SDS011;3415;51.148;7.014;2023-04-24T00:14:19;2.33;;;1.20;;
6755;SDS011;3415;51.148;7.014;2023-04-24T00:16:47;2.20;;;1.33;;
6755;SDS011;3415;51.148;7.014;2023-04-24T00:19:14;1.73;;;1.00;;
6755;SDS011;3415;51.148;7.014;2023-04-24T00:21:41;1.90;;;1.10;;
6755;SDS011;3415;51.148;7.014;2023-04-24T00:24:08;2.17;;;1.37;;
6755;SDS011;3415;51.148;7.014;2023-04-24T00:26:35;2.10;;;1.30;;
6755;SDS011;3415;51.148;7.014;2023-04-24T00:29:02;1.40;;;0.80;;
6755;SDS011;3415;51.148;7.014;2023-04-24T00:31:29;1.50;;;0.90;;
6755;SDS011;3415;51.148;7.014;2023-04-24T00:33:57;1.97;;;1.13;;
6755;SDS011;3415;51.148;7.014;2023-04-24T00:36:24;1.63;;;1.00;;
6755;SDS011;3415;51.148;7.014;2023-04-24T00:38:52;1.60;;;0.90;;
6755;SDS011;3415;51.148;7.014;2023-04-24T00:41:18;1.87;;;0.87;;
6755;SDS011;3415;51.148;7.014;2023-04-24T00:43:46;5.27;;;1.27;;
6755;SDS011;3415;51.148;7.014;2023-04-24T00:46:12;1.37;;;0.80;;
6755;SDS011;3415;51.148;7.014;2023-04-24T00:48:40;1.67;;;1.03;;
6755;SDS011;3415;51.148;7.014;2023-04-24T00:51:08;2.53;;;1.40;;
6755;SDS011;3415;51.148;7.014;2023-04-24T00:53:35;1.53;;;1.00;;
6755;SDS011;3415;51.148;7.014;2023-04-24T00:56:02;1.70;;;1.17;;
6755;SDS011;3415;51.148;7.014;2023-04-24T00:58:30;1.77;;;0.90;;
6755;SDS011;3415;51.148;7.014;2023-04-24T01:00:58;1.40;;;0.90;;
6755;SDS011;3415;51.148;7.014;2023-04-24T01:03:26;1.67;;;1.00;;
6755;SDS011;3415;51.148;7.014;2023-04-24T01:05:56;1.70;;;1.10;;
6755;SDS011;3415;51.148;7.014;2023-04-24T01:08:25;2.77;;;1.60;;
6755;SDS011;3415;51.148;7.014;2023-04-24T01:10:54;1.90;;;1.13;;
6755;SDS011;3415;51.148;7.014;2023-04-24T01:13:23;2.73;;;1.30;;
6755;SDS011;3415;51.148;7.014;2023-04-24T01:15:50;2.10;;;1.20;;
6755;SDS011;3415;51.148;7.014;2023-04-24T01:18:17;2.30;;;1.30;;
6755;SDS011;3415;51.148;7.014;2023-04-24T01:20:44;3.60;;;1.30;;
6755;SDS011;3415;51.148;7.014;2023-04-24T01:23:13;1.70;;;1.10;;
6755;SDS011;3415;51.148;7.014;2023-04-24T01:25:40;2.03;;;1.20;;
6755;SDS011;3415;51.148;7.014;2023-04-24T01:28:07;3.70;;;1.40;;
6755;SDS011;3415;51.148;7.014;2023-04-24T01:30:34;4.77;;;1.77;;
6755;SDS011;3415;51.148;7.014;2023-04-24T01:33:01;1.73;;;1.20;;
6755;SDS011;3415;51.148;7.014;2023-04-24T01:35:28;1.90;;;1.40;;
6755;SDS011;3415;51.148;7.014;2023-04-24T01:37:55;3.27;;;1.33;;
6755;SDS011;3415;51.148;7.014;2023-04-24T01:40:24;2.50;;;1.60;;
6755;SDS011;3415;51.148;7.014;2023-04-24T01:42:51;2.43;;;1.53;;
6755;SDS011;3415;51.148;7.014;2023-04-24T01:45:18;3.40;;;1.90;;
6755;SDS011;3415;51.148;7.014;2023-04-24T01:47:45;2.73;;;1.70;;
6755;SDS011;3415;51.148;7.014;2023-04-24T01:50:14;4.83;;;2.20;;
6755;SDS011;3415;51.148;7.014;2023-04-24T01:52:41;5.67;;;2.47;;
6755;SDS011;3415;51.148;7.014;2023-04-24T01:55:08;3.93;;;2.20;;
6755;SDS011;3415;51.148;7.014;2023-04-24T01:57:37;5.00;;;2.17;;
6755;SDS011;3415;51.148;7.014;2023-04-24T02:00:04;4.93;;;2.70;;
6755;SDS011;3415;51.148;7.014;2023-04-24T02:02:32;4.60;;;2.47;;
6755;SDS011;3415;51.148;7.014;2023-04-24T02:04:59;3.67;;;2.47;;
6755;SDS011;3415;51.148;7.014;2023-04-24T02:07:26;12.83;;;3.53;;
6755;SDS011;3415;51.148;7.014;2023-04-24T02:09:53;5.70;;;2.57;;
6755;SDS011;3415;51.148;7.014;2023-04-24T02:12:20;11.33;;;2.60;;
6755;SDS011;3415;51.148;7.014;2023-04-24T02:14:48;5.90;;;2.70;;
6755;SDS011;3415;51.148;7.014;2023-04-24T02:17:17;4.67;;;2.70;;
6755;SDS011;3415;51.148;7.014;2023-04-24T02:19:44;3.67;;;2.80;;
6755;SDS011;3415;51.148;7.014;2023-04-24T02:22:11;5.33;;;3.60;;
6755;SDS011;3415;51.148;7.014;2023-04-24T02:24:38;4.80;;;2.80;;
6755;SDS011;3415;51.148;7.014;2023-04-24T02:27:05;9.03;;;3.67;;
6755;SDS011;3415;51.148;7.014;2023-04-24T02:29:32;9.33;;;3.20;;
6755;SDS011;3415;51.148;7.014;2023-04-24T02:32:00;6.13;;;3.43;;
6755;SDS011;3415;51.148;7.014;2023-04-24T02:34:27;6.33;;;3.70;;
6755;SDS011;3415;51.148;7.014;2023-04-24T02:36:54;8.13;;;3.77;;
6755;SDS011;3415;51.148;7.014;2023-04-24T02:39:21;7.77;;;3.90;;
6755;SDS011;3415;51.148;7.014;2023-04-24T02:41:48;6.77;;;3.93;;
6755;SDS011;3415;51.148;7.014;2023-04-24T02:44:15;8.20;;;4.50;;
6755;SDS011;3415;51.148;7.014;2023-04-24T02:46:42;9.10;;;5.03;;
6755;SDS011;3415;51.148;7.014;2023-04-24T02:49:10;8.33;;;4.83;;
6755;SDS011;3415;51.148;7.014;2023-04-24T02:51:37;7.03;;;4.30;;
6755;SDS011;3415;51.148;7.014;2023-04-24T02:54:06;8.90;;;4.20;;
6755;SDS011;3415;51.148;7.014;2023-04-24T02:56:33;9.10;;;4.83;;
6755;SDS011;3415;51.148;7.014;2023-04-24T02:59:00;7.33;;;3.30;;
6755;SDS011;3415;51.148;7.014;2023-04-24T03:01:26;8.60;;;4.30;;
6755;SDS011;3415;51.148;7.014;2023-04-24T03:03:53;6.57;;;3.90;;
6755;SDS011;3415;51.148;7.014;2023-04-24T03:06:21;4.90;;;3.43;;
6755;SDS011;3415;51.148;7.014;2023-04-24T03:08:48;6.90;;;3.27;;
6755;SDS011;3415;51.148;7.014;2023-04-24T03:11:15;6.60;;;4.33;;
6755;SDS011;3415;51.148;7.014;2023-04-24T03:13:42;8.53;;;4.60;;
6755;SDS011;3415;51.148;7.014;2023-04-24T03:16:09;9.70;;;3.57;;
6755;SDS011;3415;51.148;7.014;2023-04-24T03:18:35;10.50;;;3.97;;
6755;SDS011;3415;51.148;7.014;2023-04-24T03:21:02;6.93;;;2.50;;
6755;SDS011;3415;51.148;7.014;2023-04-24T03:23:31;6.37;;;3.30;;
6755;SDS011;3415;51.148;7.014;2023-04-24T03:25:57;5.53;;;3.10;;
6755;SDS011;3415;51.148;7.014;2023-04-24T03:28:24;7.40;;;2.47;;
6755;SDS011;3415;51.148;7.014;2023-04-24T03:30:51;5.97;;;3.27;;
6755;SDS011;3415;51.148;7.014;2023-04-24T03:33:18;4.73;;;2.47;;
6755;SDS011;3415;51.148;7.014;2023-04-24T03:35:45;9.20;;;4.27;;
6755;SDS011;3415;51.148;7.014;2023-04-24T03:38:12;11.47;;;4.20;;
6755;SDS011;3415;51.148;7.014;2023-04-24T03:40:40;10.87;;;3.90;;
6755;SDS011;3415;51.148;7.014;2023-04-24T03:43:07;6.30;;;3.73;;
6755;SDS011;3415;51.148;7.014;2023-04-24T03:45:34;6.70;;;3.93;;
6755;SDS011;3415;51.148;7.014;2023-04-24T03:48:00;9.10;;;3.27;;
6755;SDS011;3415;51.148;7.014;2023-04-24T03:50:27;7.90;;;4.97;;
6755;SDS011;3415;51.148;7.014;2023-04-24T03:52:55;6.80;;;3.80;;
6755;SDS011;3415;51.148;7.014;2023-04-24T03:55:21;3.83;;;2.80;;
6755;SDS011;3415;51.148;7.014;2023-04-24T03:57:50;8.10;;;4.03;;
6755;SDS011;3415;51.148;7.014;2023-04-24T04:00:16;3.43;;;2.40;;
6755;SDS011;3415;51.148;7.014;2023-04-24T04:02:43;8.53;;;4.50;;
6755;SDS011;3415;51.148;7.014;2023-04-24T04:05:10;7.80;;;4.43;;
6755;SDS011;3415;51.148;7.014;2023-04-24T04:07:37;10.90;;;4.70;;
6755;SDS011;3415;51.148;7.014;2023-04-24T04:10:04;6.47;;;3.93;;
6755;SDS011;3415;51.148;7.014;2023-04-24T04:12:32;9.20;;;4.37;;
6755;SDS011;3415;51.148;7.014;2023-04-24T04:15:00;8.80;;;5.03;;
6755;SDS011;3415;51.148;7.014;2023-04-24T04:17:27;8.40;;;4.30;;
6755;SDS011;3415;51.148;7.014;2023-04-24T04:19:54;9.37;;;4.70;;
6755;SDS011;3415;51.148;7.014;2023-04-24T04:22:22;9.80;;;3.93;;
6755;SDS011;3415;51.148;7.014;2023-04-24T04:24:49;6.80;;;4.17;;
6755;SDS011;3415;51.148;7.014;2023-04-24T04:27:16;7.93;;;3.97;;
6755;SDS011;3415;51.148;7.014;2023-04-24T04:29:43;9.60;;;4.63;;
6755;SDS011;3415;51.148;7.014;2023-04-24T04:32:12;9.70;;;4.67;;
6755;SDS011;3415;51.148;7.014;2023-04-24T04:34:38;7.07;;;4.17;;
6755;SDS011;3415;51.148;7.014;2023-04-24T04:37:05;12.47;;;3.87;;
6755;SDS011;3415;51.148;7.014;2023-04-24T04:39:32;6.60;;;3.13;;
6755;SDS011;3415;51.148;7.014;2023-04-24T04:41:59;10.47;;;5.03;;
6755;SDS011;3415;51.148;7.014;2023-04-24T04:44:26;4.17;;;2.20;;
6755;SDS011;3415;51.148;7.014;2023-04-24T04:46:53;9.13;;;4.40;;
6755;SDS011;3415;51.148;7.014;2023-04-24T04:49:22;8.23;;;4.40;;
6755;SDS011;3415;51.148;7.014;2023-04-24T04:51:49;7.17;;;4.30;;
6755;SDS011;3415;51.148;7.014;2023-04-24T04:54:16;6.00;;;3.77;;
6755;SDS011;3415;51.148;7.014;2023-04-24T04:56:43;7.73;;;3.57;;
6755;SDS011;3415;51.148;7.014;2023-04-24T04:59:10;7.80;;;4.37;;
6755;SDS011;3415;51.148;7.014;2023-04-24T05:01:38;8.00;;;4.03;;
6755;SDS011;3415;51.148;7.014;2023-04-24T05:04:05;9.40;;;4.80;;
6755;SDS011;3415;51.148;7.014;2023-04-24T05:06:33;6.67;;;3.80;;
6755;SDS011;3415;51.148;7.014;2023-04-24T05:09:00;6.37;;;3.50;;
6755;SDS011;3415;51.148;7.014;2023-04-24T05:11:28;8.47;;;4.10;;
6755;SDS011;3415;51.148;7.014;2023-04-24T05:13:55;6.97;;;4.17;;
6755;SDS011;3415;51.148;7.014;2023-04-24T05:16:22;6.90;;;4.20;;
6755;SDS011;3415;51.148;7.014;2023-04-24T05:18:49;19.30;;;3.67;;
6755;SDS011;3415;51.148;7.014;2023-04-24T05:21:15;6.97;;;3.37;;
6755;SDS011;3415;51.148;7.014;2023-04-24T05:23:44;6.40;;;2.67;;
6755;SDS011;3415;51.148;7.014;2023-04-24T05:26:10;9.53;;;3.43;;
6755;SDS011;3415;51.148;7.014;2023-04-24T05:28:37;6.60;;;4.00;;
6755;SDS011;3415;51.148;7.014;2023-04-24T05:31:05;10.13;;;2.97;;
6755;SDS011;3415;51.148;7.014;2023-04-24T05:33:31;9.27;;;3.60;;
6755;SDS011;3415;51.148;7.014;2023-04-24T05:35:58;5.33;;;3.00;;
6755;SDS011;3415;51.148;7.014;2023-04-24T05:38:25;3.73;;;2.60;;
6755;SDS011;3415;51.148;7.014;2023-04-24T05:40:54;6.70;;;4.43;;
6755;SDS011;3415;51.148;7.014;2023-04-24T05:43:20;10.13;;;2.67;;
6755;SDS011;3415;51.148;7.014;2023-04-24T05:45:47;6.60;;;4.13;;
6755;SDS011;3415;51.148;7.014;2023-04-24T05:48:14;8.57;;;3.83;;
6755;SDS011;3415;51.148;7.014;2023-04-24T05:50:41;12.13;;;4.43;;
6755;SDS011;3415;51.148;7.014;2023-04-24T05:53:08;9.93;;;4.80;;
6755;SDS011;3415;51.148;7.014;2023-04-24T05:55:35;8.80;;;4.90;;
6755;SDS011;3415;51.148;7.014;2023-04-24T05:58:04;7.67;;;3.93;;
6755;SDS011;3415;51.148;7.014;2023-04-24T06:00:31;9.50;;;5.13;;
6755;SDS011;3415;51.148;7.014;2023-04-24T06:02:59;11.00;;;4.57;;
6755;SDS011;3415;51.148;7.014;2023-04-24T06:05:28;4.53;;;3.17;;
6755;SDS011;3415;51.148;7.014;2023-04-24T06:07:55;8.40;;;4.90;;
6755;SDS011;3415;51.148;7.014;2023-04-24T06:10:22;9.67;;;5.07;;
6755;SDS011;3415;51.148;7.014;2023-04-24T06:12:49;8.87;;;4.50;;
6755;SDS011;3415;51.148;7.014;2023-04-24T06:15:18;3.97;;;2.20;;
6755;SDS011;3415;51.148;7.014;2023-04-24T06:17:44;7.10;;;3.07;;
6755;SDS011;3415;51.148;7.014;2023-04-24T06:20:12;5.07;;;3.00;;
6755;SDS011;3415;51.148;7.014;2023-04-24T06:22:39;6.80;;;3.70;;
6755;SDS011;3415;51.148;7.014;2023-04-24T06:25:06;6.80;;;4.30;;
6755;SDS011;3415;51.148;7.014;2023-04-24T06:27:33;7.23;;;3.90;;
6755;SDS011;3415;51.148;7.014;2023-04-24T06:30:00;12.60;;;4.70;;
6755;SDS011;3415;51.148;7.014;2023-04-24T06:32:28;8.40;;;2.63;;
6755;SDS011;3415;51.148;7.014;2023-04-24T06:34:55;8.53;;;5.30;;
6755;SDS011;3415;51.148;7.014;2023-04-24T06:37:22;3.63;;;2.10;;
6755;SDS011;3415;51.148;7.014;2023-04-24T06:39:49;12.20;;;2.40;;
6755;SDS011;3415;51.148;7.014;2023-04-24T06:42:16;4.00;;;2.70;;
6755;SDS011;3415;51.148;7.014;2023-04-24T06:44:45;4.20;;;2.83;;
6755;SDS011;3415;51.148;7.014;2023-04-24T06:47:12;8.03;;;3.17;;
6755;SDS011;3415;51.148;7.014;2023-04-24T06:49:41;5.00;;;2.63;;
6755;SDS011;3415;51.148;7.014;2023-04-24T06:52:08;2.53;;;1.37;;
6755;SDS011;3415;51.148;7.014;2023-04-24T06:54:34;4.00;;;2.57;;
6755;SDS011;3415;51.148;7.014;2023-04-24T06:57:01;3.40;;;1.77;;
6755;SDS011;3415;51.148;7.014;2023-04-24T06:59:28;5.00;;;2.37;;
6755;SDS011;3415;51.148;7.014;2023-04-24T07:01:56;6.03;;;2.90;;
6755;SDS011;3415;51.148;7.014;2023-04-24T07:04:22;3.70;;;1.97;;
6755;SDS011;3415;51.148;7.014;2023-04-24T07:06:51;5.00;;;2.37;;
6755;SDS011;3415;51.148;7.014;2023-04-24T07:09:20;2.27;;;1.63;;
6755;SDS011;3415;51.148;7.014;2023-04-24T07:11:48;4.57;;;2.57;;
6755;SDS011;3415;51.148;7.014;2023-04-24T07:14:15;3.93;;;2.30;;
6755;SDS011;3415;51.148;7.014;2023-04-24T07:16:42;5.10;;;3.07;;
6755;SDS011;3415;51.148;7.014;2023-04-24T07:19:10;7.37;;;3.43;;
6755;SDS011;3415;51.148;7.014;2023-04-24T07:21:37;5.40;;;2.90;;
6755;SDS011;3415;51.148;7.014;2023-04-24T07:24:05;5.73;;;2.60;;
6755;SDS011;3415;51.148;7.014;2023-04-24T07:26:35;2.87;;;1.83;;
6755;SDS011;3415;51.148;7.014;2023-04-24T07:29:04;3.70;;;2.37;;
6755;SDS011;3415;51.148;7.014;2023-04-24T07:31:30;6.10;;;2.70;;
6755;SDS011;3415;51.148;7.014;2023-04-24T07:33:57;8.47;;;2.63;;
6755;SDS011;3415;51.148;7.014;2023-04-24T07:36:24;3.03;;;1.63;;
6755;SDS011;3415;51.148;7.014;2023-04-24T07:38:53;2.23;;;1.30;;
6755;SDS011;3415;51.148;7.014;2023-04-24T07:41:21;3.23;;;2.20;;
6755;SDS011;3415;51.148;7.014;2023-04-24T07:43:49;2.13;;;1.50;;
6755;SDS011;3415;51.148;7.014;2023-04-24T07:46:16;3.13;;;2.20;;
6755;SDS011;3415;51.148;7.014;2023-04-24T07:48:43;3.03;;;1.70;;
6755;SDS011;3415;51.148;7.014;2023-04-24T07:51:11;6.03;;;1.60;;
6755;SDS011;3415;51.148;7.014;2023-04-24T07:53:38;3.70;;;1.80;;
6755;SDS011;3415;51.148;7.014;2023-04-24T07:56:05;1.90;;;1.10;;
6755;SDS011;3415;51.148;7.014;2023-04-24T07:58:33;4.30;;;2.03;;
6755;SDS011;3415;51.148;7.014;2023-04-24T08:01:00;4.27;;;1.97;;
6755;SDS011;3415;51.148;7.014;2023-04-24T08:03:27;1.90;;;1.10;;
6755;SDS011;3415;51.148;7.014;2023-04-24T08:05:54;3.10;;;1.17;;
6755;SDS011;3415;51.148;7.014;2023-04-24T08:08:21;8.10;;;1.33;;
6755;SDS011;3415;51.148;7.014;2023-04-24T08:10:49;6.10;;;1.00;;
6755;SDS011;3415;51.148;7.014;2023-04-24T08:13:16;3.10;;;0.80;;
6755;SDS011;3415;51.148;7.014;2023-04-24T08:15:44;1.27;;;0.77;;
6755;SDS011;3415;51.148;7.014;2023-04-24T08:18:11;1.70;;;0.80;;
6755;SDS011;3415;51.148;7.014;2023-04-24T08:20:38;1.30;;;0.70;;
6755;SDS011;3415;51.148;7.014;2023-04-24T08:23:05;1.57;;;0.87;;
6755;SDS011;3415;51.148;7.014;2023-04-24T08:25:32;2.70;;;1.17;;
6755;SDS011;3415;51.148;7.014;2023-04-24T08:28:00;1.37;;;0.70;;
6755;SDS011;3415;51.148;7.014;2023-04-24T08:30:28;1.60;;;1.03;;
6755;SDS011;3415;51.148;7.014;2023-04-24T08:32:57;3.03;;;1.10;;
6755;SDS011;3415;51.148;7.014;2023-04-24T08:35:24;2.23;;;1.60;;
6755;SDS011;3415;51.148;7.014;2023-04-24T08:37:52;3.30;;;2.10;;
6755;SDS011;3415;51.148;7.014;2023-04-24T08:40:21;6.70;;;2.13;;
6755;SDS011;3415;51.148;7.014;2023-04-24T08:42:54;4.60;;;2.43;;
6755;SDS011;3415;51.148;7.014;2023-04-24T08:45:22;4.30;;;2.33;;
6755;SDS011;3415;51.148;7.014;2023-04-24T08:47:51;5.07;;;3.10;;
6755;SDS011;3415;51.148;7.014;2023-04-24T08:50:21;8.80;;;3.70;;
6755;SDS011;3415;51.148;7.014;2023-04-24T08:52:49;8.40;;;2.50;;
6755;SDS011;3415;51.148;7.014;2023-04-24T08:55:18;4.60;;;2.73;;
6755;SDS011;3415;51.148;7.014;2023-04-24T08:57:49;4.03;;;2.20;;
6755;SDS011;3415;51.148;7.014;2023-04-24T09:00:18;6.13;;;2.77;;
6755;SDS011;3415;51.148;7.014;2023-04-24T09:02:46;2.80;;;1.90;;
6755;SDS011;3415;51.148;7.014;2023-04-24T09:05:16;9.03;;;2.43;;
6755;SDS011;3415;51.148;7.014;2023-04-24T09:07:47;7.23;;;2.20;;
6755;SDS011;3415;51.148;7.014;2023-04-24T09:10:18;5.17;;;2.10;;
6755;SDS011;3415;51.148;7.014;2023-04-24T09:12:45;4.27;;;2.20;;
6755;SDS011;3415;51.148;7.014;2023-04-24T09:15:13;6.30;;;2.23;;
6755;SDS011;3415;51.148;7.014;2023-04-24T09:17:40;6.70;;;2.37;;
6755;SDS011;3415;51.148;7.014;2023-04-24T09:20:07;4.33;;;2.40;;
6755;SDS011;3415;51.148;7.014;2023-04-24T09:22:34;4.27;;;2.13;;
6755;SDS011;3415;51.148;7.014;2023-04-24T09:25:04;2.70;;;1.70;;
6755;SDS011;3415;51.148;7.014;2023-04-24T09:27:32;5.70;;;2.80;;
6755;SDS011;3415;51.148;7.014;2023-04-24T09:30:00;4.47;;;2.60;;
6755;SDS011;3415;51.148;7.014;2023-04-24T09:32:27;6.90;;;2.33;;
6755;SDS011;3415;51.148;7.014;2023-04-24T09:35:05;4.87;;;2.20;;
6755;SDS011;3415;51.148;7.014;2023-04-24T09:37:37;5.63;;;3.30;;
6755;SDS011;3415;51.148;7.014;2023-04-24T09:42:52;5.57;;;3.07;;
6755;SDS011;3415;51.148;7.014;2023-04-24T09:45:20;9.27;;;4.13;;
6755;SDS011;3415;51.148;7.014;2023-04-24T09:47:51;10.90;;;2.90;;
6755;SDS011;3415;51.148;7.014;2023-04-24T09:50:18;7.00;;;3.33;;
6755;SDS011;3415;51.148;7.014;2023-04-24T09:52:46;5.43;;;3.20;;
6755;SDS011;3415;51.148;7.014;2023-04-24T09:55:21;5.67;;;3.10;;
6755;SDS011;3415;51.148;7.014;2023-04-24T09:57:50;6.10;;;2.77;;
6755;SDS011;3415;51.148;7.014;2023-04-24T10:00:18;6.63;;;2.30;;
6755;SDS011;3415;51.148;7.014;2023-04-24T10:02:51;5.37;;;3.10;;
6755;SDS011;3415;51.148;7.014;2023-04-24T10:05:25;6.57;;;2.80;;
6755;SDS011;3415;51.148;7.014;2023-04-24T10:07:57;9.53;;;2.47;;
6755;SDS011;3415;51.148;7.014;2023-04-24T10:10:27;7.57;;;3.30;;
6755;SDS011;3415;51.148;7.014;2023-04-24T10:12:56;8.70;;;4.33;;
6755;SDS011;3415;51.148;7.014;2023-04-24T10:15:23;4.57;;;3.10;;
6755;SDS011;3415;51.148;7.014;2023-04-24T10:17:51;10.00;;;4.07;;
6755;SDS011;3415;51.148;7.014;2023-04-24T10:20:19;6.70;;;3.60;;
6755;SDS011;3415;51.148;7.014;2023-04-24T10:22:48;7.70;;;3.80;;
6755;SDS011;3415;51.148;7.014;2023-04-24T10:25:16;11.50;;;4.87;;
6755;SDS011;3415;51.148;7.014;2023-04-24T10:27:44;12.67;;;4.70;;
6755;SDS011;3415;51.148;7.014;2023-04-24T10:30:14;8.37;;;5.10;;
6755;SDS011;3415;51.148;7.014;2023-04-24T10:32:42;13.47;;;6.00;;
6755;SDS011;3415;51.148;7.014;2023-04-24T10:35:10;15.87;;;5.07;;
6755;SDS011;3415;51.148;7.014;2023-04-24T10:37:40;9.73;;;5.87;;
6755;SDS011;3415;51.148;7.014;2023-04-24T10:40:10;9.77;;;4.40;;
6755;SDS011;3415;51.148;7.014;2023-04-24T10:42:42;16.40;;;5.53;;
6755;SDS011;3415;51.148;7.014;2023-04-24T10:45:17;18.47;;;5.50;;
6755;SDS011;3415;51.148;7.014;2023-04-24T10:47:53;13.80;;;5.93;;
6755;SDS011;3415;51.148;7.014;2023-04-24T10:50:23;11.10;;;5.10;;
6755;SDS011;3415;51.148;7.014;2023-04-24T10:52:51;12.27;;;5.37;;
6755;SDS011;3415;51.148;7.014;2023-04-24T10:58:08;5.13;;;3.77;;
6755;SDS011;3415;51.148;7.014;2023-04-24T11:00:37;7.93;;;4.50;;
6755;SDS011;3415;51.148;7.014;2023-04-24T11:03:05;8.50;;;5.10;;
6755;SDS011;3415;51.148;7.014;2023-04-24T11:08:22;9.10;;;4.20;;
6755;SDS011;3415;51.148;7.014;2023-04-24T11:10:54;9.27;;;3.20;;
6755;SDS011;3415;51.148;7.014;2023-04-24T11:16:30;6.10;;;3.93;;
6755;SDS011;3415;51.148;7.014;2023-04-24T11:19:02;12.90;;;4.20;;
6755;SDS011;3415;51.148;7.014;2023-04-24T11:21:31;9.83;;;3.50;;
6755;SDS011;3415;51.148;7.014;2023-04-24T11:23:58;6.47;;;4.07;;
6755;SDS011;3415;51.148;7.014;2023-04-24T11:26:53;9.07;;;3.57;;
6755;SDS011;3415;51.148;7.014;2023-04-24T11:29:21;10.13;;;3.07;;
6755;SDS011;3415;51.148;7.014;2023-04-24T11:31:50;11.83;;;3.60;;
6755;SDS011;3415;51.148;7.014;2023-04-24T11:34:17;25.50;;;5.67;;
6755;SDS011;3415;51.148;7.014;2023-04-24T11:36:44;17.90;;;3.20;;
6755;SDS011;3415;51.148;7.014;2023-04-24T11:39:12;14.13;;;4.83;;
6755;SDS011;3415;51.148;7.014;2023-04-24T11:41:39;7.70;;;3.30;;
6755;SDS011;3415;51.148;7.014;2023-04-24T11:44:08;3.37;;;2.30;;
6755;SDS011;3415;51.148;7.014;2023-04-24T11:46:35;6.10;;;3.23;;
6755;SDS011;3415;51.148;7.014;2023-04-24T11:49:06;9.93;;;2.90;;
6755;SDS011;3415;51.148;7.014;2023-04-24T11:51:33;8.63;;;3.60;;
6755;SDS011;3415;51.148;7.014;2023-04-24T11:54:00;7.53;;;3.30;;
6755;SDS011;3415;51.148;7.014;2023-04-24T11:56:28;15.13;;;3.57;;
6755;SDS011;3415;51.148;7.014;2023-04-24T11:58:56;3.90;;;2.60;;
6755;SDS011;3415;51.148;7.014;2023-04-24T12:01:23;7.33;;;3.10;;
6755;SDS011;3415;51.148;7.014;2023-04-24T12:03:50;4.17;;;2.83;;
6755;SDS011;3415;51.148;7.014;2023-04-24T12:06:26;5.77;;;3.17;;
6755;SDS011;3415;51.148;7.014;2023-04-24T12:08:53;19.20;;;3.60;;
6755;SDS011;3415;51.148;7.014;2023-04-24T12:11:22;12.23;;;3.67;;
6755;SDS011;3415;51.148;7.014;2023-04-24T12:13:49;10.53;;;3.10;;
6755;SDS011;3415;51.148;7.014;2023-04-24T12:16:16;7.00;;;2.70;;
6755;SDS011;3415;51.148;7.014;2023-04-24T12:18:44;4.00;;;2.27;;
6755;SDS011;3415;51.148;7.014;2023-04-24T12:21:15;5.70;;;2.80;;
6755;SDS011;3415;51.148;7.014;2023-04-24T12:23:44;7.33;;;2.43;;
6755;SDS011;3415;51.148;7.014;2023-04-24T12:26:11;5.50;;;2.90;;
6755;SDS011;3415;51.148;7.014;2023-04-24T12:28:41;11.90;;;2.87;;
6755;SDS011;3415;51.148;7.014;2023-04-24T12:31:09;7.23;;;3.10;;
6755;SDS011;3415;51.148;7.014;2023-04-24T12:33:35;11.00;;;2.60;;
6755;SDS011;3415;51.148;7.014;2023-04-24T12:36:03;8.20;;;3.00;;
6755;SDS011;3415;51.148;7.014;2023-04-24T12:38:31;8.40;;;3.30;;
6755;SDS011;3415;51.148;7.014;2023-04-24T12:41:06;3.97;;;1.87;;
6755;SDS011;3415;51.148;7.014;2023-04-24T12:43:34;9.03;;;2.40;;
6755;SDS011;3415;51.148;7.014;2023-04-24T12:46:02;7.53;;;2.53;;
6755;SDS011;3415;51.148;7.014;2023-04-24T12:48:30;5.60;;;2.63;;
6755;SDS011;3415;51.148;7.014;2023-04-24T12:50:57;6.93;;;2.50;;
6755;SDS011;3415;51.148;7.014;2023-04-24T12:53:26;7.10;;;2.70;;
6755;SDS011;3415;51.148;7.014;2023-04-24T12:55:55;4.33;;;1.90;;
6755;SDS011;3415;51.148;7.014;2023-04-24T12:58:23;10.43;;;2.40;;
6755;SDS011;3415;51.148;7.014;2023-04-24T13:00:50;5.33;;;1.67;;
6755;SDS011;3415;51.148;7.014;2023-04-24T13:03:17;1.80;;;1.10;;
6755;SDS011;3415;51.148;7.014;2023-04-24T13:05:45;2.17;;;1.60;;
6755;SDS011;3415;51.148;7.014;2023-04-24T13:08:11;5.93;;;1.90;;
6755;SDS011;3415;51.148;7.014;2023-04-24T13:10:39;10.97;;;2.17;;
6755;SDS011;3415;51.148;7.014;2023-04-24T13:13:06;4.17;;;1.80;;
6755;SDS011;3415;51.148;7.014;2023-04-24T13:15:35;5.07;;;1.80;;
6755;SDS011;3415;51.148;7.014;2023-04-24T13:18:02;3.67;;;1.60;;
6755;SDS011;3415;51.148;7.014;2023-04-24T13:20:29;3.33;;;1.20;;
6755;SDS011;3415;51.148;7.014;2023-04-24T13:22:56;4.47;;;1.50;;
6755;SDS011;3415;51.148;7.014;2023-04-24T13:25:23;3.30;;;1.80;;
6755;SDS011;3415;51.148;7.014;2023-04-24T13:27:51;3.00;;;1.30;;
6755;SDS011;3415;51.148;7.014;2023-04-24T13:30:18;4.27;;;1.67;;
6755;SDS011;3415;51.148;7.014;2023-04-24T13:32:47;3.47;;;1.47;;
6755;SDS011;3415;51.148;7.014;2023-04-24T13:35:14;3.07;;;1.57;;
6755;SDS011;3415;51.148;7.014;2023-04-24T13:37:40;3.20;;;1.57;;
6755;SDS011;3415;51.148;7.014;2023-04-24T13:40:08;5.77;;;1.73;;
6755;SDS011;3415;51.148;7.014;2023-04-24T13:42:35;3.47;;;1.80;;
6755;SDS011;3415;51.148;7.014;2023-04-24T13:45:02;2.67;;;1.37;;
6755;SDS011;3415;51.148;7.014;2023-04-24T13:47:30;3.13;;;1.70;;
6755;SDS011;3415;51.148;7.014;2023-04-24T13:49:58;2.23;;;1.63;;
6755;SDS011;3415;51.148;7.014;2023-04-24T13:52:25;2.50;;;1.57;;
6755;SDS011;3415;51.148;7.014;2023-04-24T13:54:52;5.80;;;1.80;;
6755;SDS011;3415;51.148;7.014;2023-04-24T13:57:18;2.30;;;1.23;;
6755;SDS011;3415;51.148;7.014;2023-04-24T13:59:46;5.10;;;1.70;;
6755;SDS011;3415;51.148;7.014;2023-04-24T14:02:13;2.77;;;1.80;;
6755;SDS011;3415;51.148;7.014;2023-04-24T14:04:40;3.27;;;2.00;;
6755;SDS011;3415;51.148;7.014;2023-04-24T14:07:08;5.00;;;1.77;;
6755;SDS011;3415;51.148;7.014;2023-04-24T14:09:35;2.73;;;1.50;;
6755;SDS011;3415;51.148;7.014;2023-04-24T14:12:02;3.43;;;1.70;;
6755;SDS011;3415;51.148;7.014;2023-04-24T14:14:29;3.27;;;1.93;;
6755;SDS011;3415;51.148;7.014;2023-04-24T14:16:56;1.93;;;1.30;;
6755;SDS011;3415;51.148;7.014;2023-04-24T14:19:23;2.03;;;1.57;;
6755;SDS011;3415;51.148;7.014;2023-04-24T14:21:50;2.63;;;1.40;;
6755;SDS011;3415;51.148;7.014;2023-04-24T14:24:18;2.33;;;1.40;;
6755;SDS011;3415;51.148;7.014;2023-04-24T14:26:45;2.87;;;1.70;;
6755;SDS011;3415;51.148;7.014;2023-04-24T14:29:12;3.10;;;1.77;;
6755;SDS011;3415;51.148;7.014;2023-04-24T14:31:39;5.63;;;1.80;;
6755;SDS011;3415;51.148;7.014;2023-04-24T14:34:06;4.23;;;1.93;;
6755;SDS011;3415;51.148;7.014;2023-04-24T14:36:32;2.20;;;1.20;;
6755;SDS011;3415;51.148;7.014;2023-04-24T14:39:00;2.97;;;1.50;;
6755;SDS011;3415;51.148;7.014;2023-04-24T14:41:32;2.77;;;1.60;;
6755;SDS011;3415;51.148;7.014;2023-04-24T14:44:00;7.93;;;1.50;;
6755;SDS011;3415;51.148;7.014;2023-04-24T14:46:27;2.50;;;1.50;;
6755;SDS011;3415;51.148;7.014;2023-04-24T14:48:55;2.30;;;1.73;;
6755;SDS011;3415;51.148;7.014;2023-04-24T14:51:22;5.17;;;1.50;;
6755;SDS011;3415;51.148;7.014;2023-04-24T14:53:49;3.30;;;1.40;;
6755;SDS011;3415;51.148;7.014;2023-04-24T14:56:15;2.50;;;1.50;;
6755;SDS011;3415;51.148;7.014;2023-04-24T14:58:44;2.37;;;1.47;;
6755;SDS011;3415;51.148;7.014;2023-04-24T15:01:10;4.23;;;1.30;;
6755;SDS011;3415;51.148;7.014;2023-04-24T15:03:37;2.80;;;1.40;;
6755;SDS011;3415;51.148;7.014;2023-04-24T15:06:05;2.57;;;1.50;;
6755;SDS011;3415;51.148;7.014;2023-04-24T15:08:32;2.30;;;1.30;;
6755;SDS011;3415;51.148;7.014;2023-04-24T15:10:58;3.10;;;2.07;;
6755;SDS011;3415;51.148;7.014;2023-04-24T15:13:25;9.93;;;2.40;;
6755;SDS011;3415;51.148;7.014;2023-04-24T15:15:54;2.23;;;1.10;;
6755;SDS011;3415;51.148;7.014;2023-04-24T15:18:21;2.07;;;1.20;;
6755;SDS011;3415;51.148;7.014;2023-04-24T15:20:47;2.83;;;1.30;;
6755;SDS011;3415;51.148;7.014;2023-04-24T15:23:14;2.90;;;1.40;;
6755;SDS011;3415;51.148;7.014;2023-04-24T15:25:42;3.60;;;1.47;;
6755;SDS011;3415;51.148;7.014;2023-04-24T15:28:09;4.90;;;1.20;;
6755;SDS011;3415;51.148;7.014;2023-04-24T15:30:36;2.80;;;1.10;;